Time;durP1;ratioP1;P1;durP2;ratioP2;P2;SDS_P1;SDS_P2;PMS_P1;PMS_P2;Temp;Humidity;BMP_temperature;BMP_pressure;BME280_temperature;BME280_humidity;BME280_pressure;Samples;Min_cycle;Max_cycle;Signal;HPM_P1;HPM_P2
2023/10/14 00:00:57;;;;;;;5.70;3.10;;;14.40;54.70;;;;;;5050225;28;20605;-86
2023/10/14 00:03:32;;;;;;;10.38;3.67;;;14.40;55.00;;;;;;5051627;28;20601;-86
2023/10/14 00:06:00;;;;;;;6.60;4.15;;;14.30;55.90;;;;;;5030686;28;20931;-86
2023/10/14 00:08:31;;;;;;;10.80;4.32;;;14.20;56.10;;;;;;5051502;28;20642;-86
2023/10/14 00:11:06;;;;;;;5.95;3.55;;;14.20;56.90;;;;;;5052237;28;20281;-86
2023/10/14 00:13:41;;;;;;;6.80;3.80;;;14.20;57.10;;;;;;5052494;28;20209;-87
2023/10/14 00:16:20;;;;;;;7.78;3.58;;;14.10;55.60;;;;;;5036880;28;20197;-86
2023/10/14 00:18:48;;;;;;;7.50;3.40;;;14.10;56.20;;;;;;5053178;28;20293;-86
2023/10/14 00:21:16;;;;;;;8.25;3.60;;;14.10;56.40;;;;;;5052788;28;20281;-86
2023/10/14 00:23:43;;;;;;;5.93;3.83;;;14.10;56.20;;;;;;5052712;28;20202;-86
2023/10/14 00:26:14;;;;;;;5.78;3.42;;;14.10;55.90;;;;;;5035307;28;20597;-86
2023/10/14 00:28:44;;;;;;;6.28;3.53;;;14.20;55.70;;;;;;5050992;28;20576;-86
2023/10/14 00:31:12;;;;;;;5.63;3.30;;;14.10;56.60;;;;;;5047677;28;20213;-86
2023/10/14 00:33:39;;;;;;;8.05;3.50;;;14.20;56.50;;;;;;5038518;28;20255;-86
2023/10/14 00:36:10;;;;;;;5.15;3.20;;;14.10;55.60;;;;;;5035645;28;20217;-86
2023/10/14 00:38:39;;;;;;;6.65;3.70;;;14.10;55.70;;;;;;5045101;28;20190;-86
2023/10/14 00:41:08;;;;;;;7.50;3.40;;;14.10;55.60;;;;;;5052689;28;20202;-86
2023/10/14 00:43:36;;;;;;;6.90;3.53;;;14.10;56.20;;;;;;5052474;28;20198;-86
2023/10/14 00:46:07;;;;;;;6.78;3.70;;;14.10;55.40;;;;;;5059409;28;20206;-86
2023/10/14 00:48:40;;;;;;;6.32;3.42;;;14.10;54.80;;;;;;5053733;28;20205;-86
2023/10/14 00:51:10;;;;;;;9.00;3.65;;;14.10;54.40;;;;;;5052146;28;20242;-86
2023/10/14 00:53:39;;;;;;;9.40;3.47;;;14.20;55.30;;;;;;5051161;28;20563;-87
2023/10/14 00:56:10;;;;;;;10.50;3.88;;;14.20;55.20;;;;;;5052059;28;20252;-86
2023/10/14 00:58:42;;;;;;;7.22;3.88;;;14.20;56.30;;;;;;5041977;28;20189;-86
2023/10/14 01:01:09;;;;;;;5.47;3.17;;;14.20;55.50;;;;;;5053000;28;20220;-86
2023/10/14 01:03:37;;;;;;;6.72;3.85;;;14.20;55.80;;;;;;5051890;28;20272;-86
2023/10/14 01:06:20;;;;;;;5.05;3.75;;;14.30;55.70;;;;;;5033619;28;20281;-86
2023/10/14 01:08:49;;;;;;;6.20;3.65;;;14.30;56.30;;;;;;5034931;28;20193;-86
2023/10/14 01:11:17;;;;;;;7.10;3.75;;;14.20;55.30;;;;;;5042000;28;20248;-87
2023/10/14 01:13:44;;;;;;;9.15;4.05;;;14.30;55.40;;;;;;5051265;28;20206;-86
2023/10/14 01:16:12;;;;;;;9.38;4.00;;;14.30;54.50;;;;;;5022347;28;20225;-86
2023/10/14 01:18:41;;;;;;;8.85;3.88;;;14.20;54.60;;;;;;5051064;28;20194;-87
2023/10/14 01:21:09;;;;;;;10.60;4.10;;;14.20;56.00;;;;;;5051357;28;20232;-86
2023/10/14 01:23:38;;;;;;;6.72;3.70;;;14.20;56.30;;;;;;5050387;28;20194;-86
2023/10/14 01:26:06;;;;;;;10.80;4.00;;;14.30;56.20;;;;;;5051720;28;20252;-87
2023/10/14 01:28:33;;;;;;;9.82;4.18;;;14.30;54.10;;;;;;5053372;28;20194;-86
2023/10/14 01:31:31;;;;;;;5.00;3.35;;;14.30;52.50;;;;;;5025378;28;20559;-86
2023/10/14 01:33:58;;;;;;;7.63;3.60;;;14.30;53.80;;;;;;5050832;28;20201;-86
2023/10/14 01:36:32;;;;;;;6.20;3.70;;;14.30;52.80;;;;;;5051896;28;20225;-87
2023/10/14 01:39:04;;;;;;;6.20;3.55;;;14.40;51.90;;;;;;5035572;28;20202;-87
2023/10/14 01:41:32;;;;;;;7.40;3.85;;;14.40;50.80;;;;;;5051466;28;20548;-85
2023/10/14 01:44:03;;;;;;;5.20;3.00;;;14.50;50.90;;;;;;5031984;28;20598;-86
2023/10/14 01:46:30;;;;;;;6.25;3.60;;;14.60;51.00;;;;;;5045760;28;20217;-86
2023/10/14 01:49:02;;;;;;;6.15;3.33;;;14.70;49.30;;;;;;5048320;28;20209;-87
2023/10/14 01:51:33;;;;;;;6.93;3.55;;;14.80;48.70;;;;;;5050833;28;21619;-87
2023/10/14 01:54:02;;;;;;;5.32;3.50;;;15.00;47.60;;;;;;5031573;28;20194;-86
2023/10/14 01:56:30;;;;;;;6.68;3.63;;;15.00;46.70;;;;;;5051043;28;20214;-86
2023/10/14 01:58:58;;;;;;;8.88;3.30;;;15.00;47.90;;;;;;5037036;28;20233;-86
2023/10/14 02:01:25;;;;;;;7.13;3.25;;;15.00;46.80;;;;;;5050408;28;20201;-86
2023/10/14 02:03:54;;;;;;;6.38;3.72;;;15.00;48.50;;;;;;5049937;28;20194;-85
2023/10/14 02:06:26;;;;;;;5.68;3.63;;;15.00;48.50;;;;;;5049329;28;20252;-86
2023/10/14 02:08:54;;;;;;;7.13;3.45;;;15.10;47.60;;;;;;5051311;28;20209;-87
2023/10/14 02:11:24;;;;;;;12.13;3.55;;;15.10;47.60;;;;;;5053244;28;20198;-87
2023/10/14 02:13:52;;;;;;;7.90;3.70;;;15.10;47.40;;;;;;5051641;28;20558;-87
2023/10/14 02:16:24;;;;;;;6.88;3.67;;;15.10;47.80;;;;;;5051213;28;20308;-86
2023/10/14 02:18:51;;;;;;;7.93;3.50;;;15.10;47.80;;;;;;5035421;28;20519;-86
2023/10/14 02:21:18;;;;;;;8.32;3.67;;;15.20;47.10;;;;;;5051446;28;20576;-86
2023/10/14 02:23:47;;;;;;;6.68;3.70;;;15.20;46.40;;;;;;5049885;28;20198;-86
2023/10/14 02:26:16;;;;;;;10.30;3.60;;;15.10;47.50;;;;;;5053972;28;20236;-86
2023/10/14 02:28:49;;;;;;;5.05;3.60;;;15.10;46.20;;;;;;5044687;28;20290;-86
2023/10/14 02:31:29;;;;;;;9.52;4.00;;;15.00;47.30;;;;;;5045227;28;20743;-86
2023/10/14 02:33:56;;;;;;;5.68;3.25;;;15.10;47.00;;;;;;5049639;28;20201;-86
2023/10/14 02:36:28;;;;;;;8.18;3.83;;;15.00;47.30;;;;;;5051418;28;20221;-86
2023/10/14 02:38:56;;;;;;;7.38;3.80;;;15.00;47.80;;;;;;5035635;28;20198;-86
2023/10/14 02:41:26;;;;;;;9.25;3.70;;;15.00;48.70;;;;;;5043527;28;20206;-86
2023/10/14 02:44:02;;;;;;;7.88;3.58;;;14.90;48.40;;;;;;5047706;28;20721;-87
2023/10/14 02:46:32;;;;;;;6.18;3.42;;;14.80;49.00;;;;;;5054139;28;20280;-86
2023/10/14 02:49:06;;;;;;;8.43;4.00;;;14.80;49.40;;;;;;5039970;28;20209;-87
2023/10/14 02:51:42;;;;;;;8.05;3.90;;;14.80;49.70;;;;;;5056159;28;20627;-86
2023/10/14 02:54:15;;;;;;;5.85;3.72;;;14.80;48.00;;;;;;5054794;28;20636;-86
2023/10/14 02:56:56;;;;;;;7.07;3.58;;;14.90;46.90;;;;;;5041450;28;20210;-86
2023/10/14 02:59:43;;;;;;;7.28;3.70;;;14.90;46.60;;;;;;5033700;28;20190;-86
2023/10/14 03:02:14;;;;;;;5.45;3.40;;;15.00;46.50;;;;;;5052985;28;20201;-86
2023/10/14 03:04:55;;;;;;;8.45;3.55;;;15.10;46.10;;;;;;5055418;28;20194;-86
2023/10/14 03:07:28;;;;;;;5.68;3.70;;;15.10;46.90;;;;;;5042663;28;20194;-86
2023/10/14 03:09:58;;;;;;;7.13;3.78;;;15.20;46.60;;;;;;5051527;28;20247;-86
2023/10/14 03:12:25;;;;;;;5.80;3.50;;;15.20;47.00;;;;;;5049328;28;20204;-87
2023/10/14 03:14:54;;;;;;;6.75;3.30;;;15.20;47.30;;;;;;5040099;28;20209;-86
2023/10/14 03:17:24;;;;;;;4.82;3.42;;;15.20;47.80;;;;;;5037376;28;20198;-86
2023/10/14 03:19:53;;;;;;;5.18;3.00;;;15.10;47.80;;;;;;5054687;28;20639;-87
2023/10/14 03:22:25;;;;;;;5.38;3.17;;;15.10;47.50;;;;;;5041083;28;20198;-86
2023/10/14 03:24:53;;;;;;;4.70;3.30;;;15.10;46.60;;;;;;5055082;28;20187;-86
2023/10/14 03:27:20;;;;;;;7.40;3.53;;;15.10;47.80;;;;;;5053041;28;20205;-86
2023/10/14 03:29:54;;;;;;;7.03;3.50;;;15.10;47.20;;;;;;5054442;28;20197;-86
2023/10/14 03:32:32;;;;;;;7.18;3.53;;;15.10;47.40;;;;;;5052259;28;20190;-86
2023/10/14 03:35:03;;;;;;;6.93;3.50;;;15.10;47.50;;;;;;5033777;28;20558;-86
2023/10/14 03:37:35;;;;;;;8.02;3.70;;;15.10;49.30;;;;;;5050856;28;20190;-86
2023/10/14 03:42:54;;;;;;;8.75;3.42;;;15.20;48.60;;;;;;5055254;28;20288;-87
2023/10/14 03:45:22;;;;;;;8.10;3.60;;;15.20;47.70;;;;;;5050541;28;20281;-86
2023/10/14 03:47:59;;;;;;;7.80;3.17;;;15.30;42.70;;;;;;5054023;28;20202;-86
2023/10/14 03:50:26;;;;;;;9.35;3.47;;;15.60;41.40;;;;;;5051080;28;20247;-86
2023/10/14 03:52:53;;;;;;;8.20;3.25;;;16.00;37.30;;;;;;5047597;28;20277;-86
2023/10/14 03:55:25;;;;;;;6.20;3.20;;;16.20;36.60;;;;;;5051115;28;20222;-86
2023/10/14 03:58:01;;;;;;;10.82;3.38;;;16.50;33.80;;;;;;5053762;28;20197;-86
2023/10/14 04:00:36;;;;;;;4.45;3.03;;;16.90;32.20;;;;;;5049765;28;20650;-87
2023/10/14 04:03:11;;;;;;;6.70;3.58;;;17.10;30.00;;;;;;5046913;28;20657;-86
2023/10/14 04:05:41;;;;;;;8.75;3.90;;;17.40;29.90;;;;;;5053506;28;20201;-86
2023/10/14 04:08:09;;;;;;;6.03;3.15;;;17.60;29.70;;;;;;5041203;28;20198;-86
2023/10/14 04:10:43;;;;;;;7.65;3.33;;;17.90;27.40;;;;;;5052721;28;20226;-86
2023/10/14 04:13:13;;;;;;;10.32;3.40;;;18.00;26.80;;;;;;5052158;28;20194;-86
2023/10/14 04:15:48;;;;;;;9.40;3.58;;;18.00;26.50;;;;;;5048948;28;20275;-86
2023/10/14 04:18:24;;;;;;;9.32;3.75;;;18.10;26.80;;;;;;5053887;28;20280;-86
2023/10/14 04:21:06;;;;;;;12.68;3.65;;;18.30;25.40;;;;;;5052963;28;20251;-86
2023/10/14 04:23:38;;;;;;;8.88;3.53;;;18.50;25.80;;;;;;5051232;28;20194;-86
2023/10/14 04:26:11;;;;;;;10.65;3.60;;;18.50;25.00;;;;;;5036082;28;20194;-86
2023/10/14 04:28:53;;;;;;;7.28;3.30;;;18.50;26.00;;;;;;5030260;28;20311;-87
2023/10/14 04:31:26;;;;;;;6.70;3.78;;;18.50;26.10;;;;;;5053451;28;20194;-86
2023/10/14 04:33:55;;;;;;;9.93;3.67;;;18.60;26.20;;;;;;5053137;28;20190;-86
2023/10/14 04:36:37;;;;;;;8.05;3.70;;;18.50;27.30;;;;;;5052910;28;20225;-86
2023/10/14 04:39:12;;;;;;;7.78;3.55;;;18.70;28.00;;;;;;5057153;28;20197;-86
2023/10/14 04:41:47;;;;;;;8.13;3.95;;;18.90;27.30;;;;;;5056121;28;20666;-86
2023/10/14 04:44:14;;;;;;;6.60;3.20;;;19.00;26.80;;;;;;5049873;28;20251;-86
2023/10/14 04:46:54;;;;;;;6.57;3.90;;;19.00;28.10;;;;;;5034547;28;20832;-86
2023/10/14 04:49:36;;;;;;;6.78;3.50;;;19.00;27.90;;;;;;5048592;28;20927;-86
2023/10/14 04:52:05;;;;;;;9.25;3.75;;;19.10;28.20;;;;;;5052029;28;20209;-86
2023/10/14 04:54:34;;;;;;;8.65;3.92;;;19.30;28.10;;;;;;5050420;28;20202;-86
2023/10/14 04:57:19;;;;;;;7.97;3.75;;;19.30;28.70;;;;;;5046659;28;20579;-86
2023/10/14 04:59:50;;;;;;;6.88;3.80;;;19.20;28.80;;;;;;5050781;28;20194;-86
2023/10/14 05:02:20;;;;;;;9.73;3.92;;;19.20;29.50;;;;;;5052342;28;20244;-87
2023/10/14 05:04:50;;;;;;;9.80;3.83;;;19.20;29.40;;;;;;5047655;28;20781;-86
2023/10/14 05:07:17;;;;;;;7.40;3.90;;;19.20;30.50;;;;;;5052414;28;20206;-86
2023/10/14 05:09:55;;;;;;;7.75;4.28;;;19.20;31.40;;;;;;5051040;28;20209;-87
2023/10/14 05:12:24;;;;;;;10.45;4.10;;;19.30;31.50;;;;;;5052268;28;20601;-86
2023/10/14 05:14:52;;;;;;;5.18;3.60;;;19.30;31.50;;;;;;5049984;28;20297;-86
2023/10/14 05:17:24;;;;;;;9.90;4.47;;;19.30;31.50;;;;;;5050593;28;20686;-86
2023/10/14 05:19:58;;;;;;;17.58;4.32;;;19.30;31.50;;;;;;5051843;28;20697;-86
2023/10/14 05:22:37;;;;;;;8.02;4.03;;;19.40;31.60;;;;;;5051036;28;20194;-86
2023/10/14 05:25:15;;;;;;;8.90;4.43;;;19.40;31.60;;;;;;5050944;28;20694;-85
2023/10/14 05:27:55;;;;;;;6.70;4.03;;;19.40;31.60;;;;;;5042717;28;20216;-86
2023/10/14 05:30:22;;;;;;;16.15;4.40;;;19.40;31.60;;;;;;5047882;28;20385;-86
2023/10/14 05:32:51;;;;;;;9.60;4.28;;;19.40;31.60;;;;;;5051441;28;20204;-87
2023/10/14 05:35:22;;;;;;;9.25;4.38;;;19.30;31.50;;;;;;5050938;28;20292;-86
2023/10/14 05:37:50;;;;;;;11.63;4.45;;;19.40;31.60;;;;;;5052250;28;20289;-86
2023/10/14 05:40:21;;;;;;;11.50;4.30;;;19.40;31.60;;;;;;5053097;28;20225;-87
2023/10/14 05:42:48;;;;;;;9.88;4.25;;;19.40;32.20;;;;;;5052414;28;20548;-86
2023/10/14 05:45:17;;;;;;;14.30;5.00;;;19.30;34.10;;;;;;5051264;28;20642;-86
2023/10/14 05:47:46;;;;;;;6.97;4.10;;;19.30;33.90;;;;;;5051984;28;20275;-86
2023/10/14 05:50:15;;;;;;;7.45;4.30;;;19.30;34.60;;;;;;5051544;28;20206;-86
2023/10/14 05:52:47;;;;;;;9.77;4.60;;;19.30;34.80;;;;;;5051621;28;20259;-85
2023/10/14 05:55:19;;;;;;;15.27;5.07;;;19.40;34.80;;;;;;5051655;28;20557;-86
2023/10/14 05:57:47;;;;;;;11.40;4.43;;;19.40;34.00;;;;;;5052004;28;20855;-86
2023/10/14 06:00:21;;;;;;;10.27;4.85;;;19.50;34.60;;;;;;5040569;28;20263;-86
2023/10/14 06:02:53;;;;;;;12.43;4.55;;;19.40;35.40;;;;;;5051376;28;20676;-88
2023/10/14 06:05:21;;;;;;;8.85;5.18;;;19.30;35.70;;;;;;5038636;28;20194;-89
2023/10/14 06:07:50;;;;;;;10.68;4.75;;;19.30;37.00;;;;;;5049272;28;20194;-90
2023/10/14 06:10:22;;;;;;;6.10;4.15;;;19.30;36.70;;;;;;5045446;28;20233;-88
2023/10/14 06:12:51;;;;;;;20.13;8.70;;;19.40;36.30;;;;;;5048353;28;20230;-87
2023/10/14 06:15:19;;;;;;;9.68;4.60;;;19.40;37.10;;;;;;5047950;28;20198;-86
2023/10/14 06:17:47;;;;;;;10.48;4.97;;;19.40;38.00;;;;;;5049116;28;20230;-86
2023/10/14 06:20:15;;;;;;;7.47;4.80;;;19.40;37.80;;;;;;5049685;28;20372;-86
2023/10/14 06:22:43;;;;;;;13.02;5.45;;;19.40;37.80;;;;;;5055486;28;20201;-86
2023/10/14 06:25:16;;;;;;;11.10;4.93;;;19.50;37.60;;;;;;5054902;28;20202;-86
2023/10/14 06:27:47;;;;;;;10.38;4.47;;;19.40;37.90;;;;;;5043087;28;20540;-86
2023/10/14 06:30:21;;;;;;;10.55;4.80;;;19.40;38.80;;;;;;5052442;28;20202;-86
2023/10/14 06:32:52;;;;;;;5.28;4.55;;;19.40;38.70;;;;;;5057923;28;20645;-86
2023/10/14 06:35:19;;;;;;;16.33;5.35;;;19.50;37.70;;;;;;5053525;28;20200;-87
2023/10/14 06:37:47;;;;;;;8.65;4.65;;;19.50;38.00;;;;;;5057850;28;20237;-87
2023/10/14 06:40:18;;;;;;;7.57;4.55;;;19.50;38.80;;;;;;5057911;28;20556;-89
2023/10/14 06:42:49;;;;;;;12.40;5.10;;;19.60;37.80;;;;;;5049905;28;20199;-85
2023/10/14 06:45:20;;;;;;;14.85;5.10;;;19.50;39.10;;;;;;5056221;28;20198;-85
2023/10/14 06:47:50;;;;;;;11.52;4.70;;;19.50;39.50;;;;;;5054420;28;20692;-85
2023/10/14 06:50:20;;;;;;;7.05;4.60;;;19.50;39.20;;;;;;5056660;28;20267;-85
2023/10/14 06:52:53;;;;;;;13.35;4.60;;;19.50;39.40;;;;;;5050403;28;20198;-85
2023/10/14 06:55:22;;;;;;;8.35;4.22;;;19.50;39.80;;;;;;5057611;28;20646;-85
2023/10/14 06:57:53;;;;;;;10.32;4.80;;;19.50;41.00;;;;;;5053731;28;20301;-85
2023/10/14 07:00:25;;;;;;;8.75;3.95;;;19.50;40.10;;;;;;5058192;28;20186;-85
2023/10/14 07:02:54;;;;;;;6.72;4.20;;;19.50;41.40;;;;;;5058257;28;20233;-86
2023/10/14 07:05:27;;;;;;;8.50;4.25;;;19.60;41.00;;;;;;5057601;28;20194;-85
2023/10/14 07:07:55;;;;;;;11.55;4.32;;;19.60;41.30;;;;;;5061497;28;20753;-85
2023/10/14 07:10:27;;;;;;;7.22;3.80;;;19.70;40.30;;;;;;5060064;28;20190;-86
2023/10/14 07:13:01;;;;;;;7.97;3.90;;;19.80;39.40;;;;;;5058767;28;20194;-85
2023/10/14 07:15:29;;;;;;;10.85;4.55;;;19.80;40.10;;;;;;5052345;28;20206;-85
2023/10/14 07:17:56;;;;;;;8.93;3.88;;;19.80;40.60;;;;;;5037597;28;20233;-86
2023/10/14 07:20:24;;;;;;;7.35;4.30;;;19.70;40.60;;;;;;5065515;28;20201;-85
2023/10/14 07:22:51;;;;;;;10.35;4.38;;;19.70;40.70;;;;;;5036139;28;20251;-86
2023/10/14 07:25:19;;;;;;;10.02;3.33;;;19.80;40.70;;;;;;5030734;28;20213;-86
2023/10/14 07:27:51;;;;;;;9.10;4.47;;;19.70;41.90;;;;;;5055141;28;20225;-87
2023/10/14 07:30:19;;;;;;;9.43;3.90;;;19.70;42.00;;;;;;5049881;28;20201;-86
2023/10/14 07:32:47;;;;;;;9.98;3.90;;;19.60;43.00;;;;;;5055744;28;20197;-85
2023/10/14 07:35:18;;;;;;;8.10;4.10;;;19.70;43.20;;;;;;5053419;28;20197;-85
2023/10/14 07:37:48;;;;;;;6.60;4.07;;;19.80;43.60;;;;;;5049874;28;20225;-86
2023/10/14 07:40:23;;;;;;;9.15;4.22;;;19.90;43.70;;;;;;5033025;28;20214;-85
2023/10/14 07:42:56;;;;;;;7.82;4.40;;;19.90;43.20;;;;;;5051332;28;20206;-90
2023/10/14 07:45:28;;;;;;;8.23;3.90;;;19.80;44.20;;;;;;5053075;28;20217;-85
2023/10/14 07:47:55;;;;;;;10.50;3.92;;;19.80;43.80;;;;;;5051604;28;20193;-86
2023/10/14 07:50:22;;;;;;;9.20;4.28;;;19.70;44.50;;;;;;5034558;28;20260;-86
2023/10/14 07:52:49;;;;;;;6.28;4.05;;;19.60;45.10;;;;;;5054033;28;20208;-86
2023/10/14 07:55:22;;;;;;;7.57;4.10;;;19.70;45.20;;;;;;5051317;28;20205;-87
2023/10/14 07:57:49;;;;;;;6.25;3.90;;;19.60;45.50;;;;;;5052097;28;20221;-88
2023/10/14 08:00:18;;;;;;;6.88;3.95;;;19.60;47.20;;;;;;5050801;28;20215;-84
2023/10/14 08:02:45;;;;;;;6.03;3.95;;;19.60;46.40;;;;;;5053169;28;20272;-86
2023/10/14 08:05:12;;;;;;;6.55;4.00;;;19.60;46.70;;;;;;5053125;28;20206;-87
2023/10/14 08:07:44;;;;;;;6.57;4.00;;;19.70;46.50;;;;;;5052478;28;20198;-87
2023/10/14 08:10:18;;;;;;;7.13;4.10;;;19.60;46.30;;;;;;5049637;28;20194;-87
2023/10/14 08:12:46;;;;;;;7.18;3.95;;;19.60;47.30;;;;;;5040073;28;20205;-86
2023/10/14 08:15:14;;;;;;;6.68;3.80;;;19.70;46.80;;;;;;5031925;28;20613;-85
2023/10/14 08:17:43;;;;;;;10.60;4.10;;;19.70;46.00;;;;;;5040260;28;20620;-85
2023/10/14 08:20:14;;;;;;;11.18;4.10;;;19.70;46.60;;;;;;5034323;28;20290;-86
2023/10/14 08:22:44;;;;;;;7.15;4.18;;;19.80;46.40;;;;;;5037473;28;20659;-85
2023/10/14 08:25:12;;;;;;;5.85;4.10;;;19.80;46.90;;;;;;5045758;28;20265;-86
2023/10/14 08:27:39;;;;;;;5.68;3.83;;;19.70;46.00;;;;;;5043973;28;20654;-84
2023/10/14 08:30:11;;;;;;;6.07;3.30;;;19.60;46.00;;;;;;5050544;28;20190;-84
2023/10/14 08:32:40;;;;;;;8.93;3.72;;;19.50;45.90;;;;;;5045689;28;20681;-83
2023/10/14 08:35:15;;;;;;;9.57;4.20;;;19.50;46.80;;;;;;5052333;28;20194;-83
2023/10/14 08:37:48;;;;;;;10.18;3.58;;;19.50;46.60;;;;;;5051705;28;20221;-84
2023/10/14 08:40:19;;;;;;;9.68;3.97;;;19.50;45.50;;;;;;5053132;28;20198;-84
2023/10/14 08:42:52;;;;;;;11.60;4.18;;;19.60;45.40;;;;;;5047976;28;20658;-84
2023/10/14 08:45:21;;;;;;;6.80;3.95;;;19.60;46.20;;;;;;5049015;28;20217;-84
2023/10/14 08:47:51;;;;;;;5.32;3.75;;;19.70;45.50;;;;;;5042625;28;20259;-84
2023/10/14 08:50:23;;;;;;;7.22;3.83;;;19.80;44.90;;;;;;5047171;28;20202;-85
2023/10/14 08:52:53;;;;;;;10.25;4.28;;;19.90;44.60;;;;;;5050866;28;20201;-84
2023/10/14 08:55:21;;;;;;;8.40;3.85;;;20.10;43.80;;;;;;5048175;28;20206;-84
2023/10/14 08:57:50;;;;;;;9.23;3.88;;;20.10;43.00;;;;;;5050521;28;20471;-85
2023/10/14 09:00:23;;;;;;;10.10;4.18;;;20.10;41.50;;;;;;5052465;28;20201;-84
2023/10/14 09:02:53;;;;;;;13.80;4.57;;;20.00;42.10;;;;;;5052748;28;20292;-84
2023/10/14 09:05:24;;;;;;;8.18;4.22;;;19.90;42.90;;;;;;5032989;28;20190;-84
2023/10/14 09:07:51;;;;;;;9.82;4.32;;;19.80;42.60;;;;;;5062090;28;20201;-84
2023/10/14 09:10:20;;;;;;;9.73;4.60;;;19.90;42.40;;;;;;5054451;28;20202;-85
2023/10/14 09:12:58;;;;;;;10.15;4.43;;;19.90;41.90;;;;;;5053547;28;20205;-84
2023/10/14 09:15:29;;;;;;;7.93;4.40;;;19.80;42.30;;;;;;5051240;28;20227;-84
2023/10/14 09:17:57;;;;;;;7.55;4.40;;;19.80;42.50;;;;;;5033696;28;20217;-84
2023/10/14 09:20:31;;;;;;;7.15;4.05;;;19.80;41.80;;;;;;5041409;28;20198;-84
2023/10/14 09:23:29;;;;;;;6.10;4.25;;;19.80;41.50;;;;;;5051563;28;20655;-85
2023/10/14 09:25:58;;;;;;;7.95;4.47;;;19.80;39.90;;;;;;4971317;28;20209;-85
2023/10/14 09:28:26;;;;;;;8.45;4.03;;;19.90;38.80;;;;;;5034185;28;20201;-85
2023/10/14 09:30:56;;;;;;;11.35;4.20;;;19.90;38.00;;;;;;5049810;28;20217;-85
2023/10/14 09:33:27;;;;;;;6.88;4.10;;;20.00;38.10;;;;;;5050822;28;20197;-85
2023/10/14 09:35:58;;;;;;;8.15;4.15;;;20.10;37.30;;;;;;5052135;28;20190;-84
2023/10/14 09:38:26;;;;;;;7.00;3.67;;;20.30;35.70;;;;;;5055581;28;20222;-84
2023/10/14 09:40:55;;;;;;;7.13;4.10;;;20.30;34.90;;;;;;5050576;28;20202;-84
2023/10/14 09:43:24;;;;;;;8.85;4.47;;;20.20;35.70;;;;;;5053033;28;20198;-84
2023/10/14 09:45:55;;;;;;;8.57;4.07;;;20.10;35.70;;;;;;5039139;28;20198;-83
2023/10/14 09:48:23;;;;;;;11.57;4.30;;;20.10;35.70;;;;;;5051673;28;20650;-85
2023/10/14 09:50:54;;;;;;;7.70;3.97;;;19.90;35.60;;;;;;5046882;28;20698;-84
2023/10/14 09:53:26;;;;;;;10.50;4.25;;;19.90;36.70;;;;;;5046754;28;20191;-84
2023/10/14 09:55:55;;;;;;;8.52;4.50;;;19.80;37.00;;;;;;5051766;28;20209;-84
2023/10/14 09:58:24;;;;;;;11.40;4.00;;;19.80;36.50;;;;;;5032849;28;20313;-84
2023/10/14 10:00:51;;;;;;;7.60;4.20;;;19.70;37.70;;;;;;5057826;28;20198;-84
2023/10/14 10:03:21;;;;;;;10.88;4.68;;;19.60;37.70;;;;;;5034534;28;20209;-85
2023/10/14 10:06:04;;;;;;;17.20;4.45;;;19.70;38.80;;;;;;5052841;28;20244;-84
2023/10/14 10:09:04;;;;;;;8.90;4.45;;;19.80;38.20;;;;;;5046229;28;20198;-83
2023/10/14 10:11:36;;;;;;;14.20;4.68;;;19.70;39.10;;;;;;5048678;28;20190;-84
2023/10/14 10:14:10;;;;;;;7.13;4.03;;;19.70;38.70;;;;;;5044288;28;20206;-84
2023/10/14 10:16:37;;;;;;;11.30;4.25;;;19.60;39.60;;;;;;5047205;28;20194;-85
2023/10/14 10:19:05;;;;;;;8.38;4.18;;;19.70;39.10;;;;;;5048147;28;20254;-85
2023/10/14 10:21:34;;;;;;;7.93;3.92;;;19.80;39.30;;;;;;5048846;28;20206;-87
2023/10/14 10:24:18;;;;;;;10.52;4.07;;;19.60;39.60;;;;;;5047309;28;20199;-84
2023/10/14 10:27:10;;;;;;;8.57;4.28;;;19.50;39.50;;;;;;5043232;28;20204;-84
2023/10/14 10:29:43;;;;;;;9.80;4.97;;;19.40;40.80;;;;;;5044133;28;20197;-84
2023/10/14 10:32:12;;;;;;;10.57;3.88;;;19.40;42.10;;;;;;5050387;28;20584;-83
2023/10/14 10:35:12;;;;;;;10.00;3.90;;;19.30;41.20;;;;;;5047338;28;20243;-84
2023/10/14 10:37:42;;;;;;;7.85;4.00;;;19.30;42.40;;;;;;5045218;28;20245;-84
2023/10/14 10:40:12;;;;;;;6.85;3.83;;;19.30;43.00;;;;;;5045536;28;20213;-83
2023/10/14 10:42:42;;;;;;;5.93;3.75;;;19.40;41.30;;;;;;5045393;28;20198;-83
2023/10/14 10:45:15;;;;;;;8.90;4.38;;;19.40;41.50;;;;;;5044976;28;20251;-83
2023/10/14 10:47:45;;;;;;;9.38;3.70;;;19.30;42.10;;;;;;5048230;28;20212;-84
2023/10/14 10:50:15;;;;;;;7.43;3.80;;;19.40;41.80;;;;;;5048261;28;20194;-84
2023/10/14 10:52:46;;;;;;;7.70;4.22;;;19.30;41.70;;;;;;5046176;28;20248;-91
2023/10/14 10:55:17;;;;;;;7.55;3.85;;;19.40;42.10;;;;;;5046227;28;20201;-84
2023/10/14 10:57:46;;;;;;;8.30;4.00;;;19.70;40.70;;;;;;5045733;28;20214;-85
2023/10/14 11:00:17;;;;;;;11.05;4.30;;;19.80;39.60;;;;;;5029943;28;20225;-85
2023/10/14 11:02:45;;;;;;;8.52;3.92;;;19.90;40.00;;;;;;5046376;28;20198;-85
2023/10/14 11:05:13;;;;;;;13.88;4.32;;;20.10;39.40;;;;;;5045822;28;20811;-84
2023/10/14 11:07:43;;;;;;;7.90;3.88;;;20.10;38.90;;;;;;5045656;28;20196;-87
2023/10/14 11:10:13;;;;;;;7.72;4.22;;;20.10;37.50;;;;;;5055007;28;20243;-88
2023/10/14 11:12:40;;;;;;;7.28;3.70;;;20.10;38.40;;;;;;5050389;28;20228;-87
2023/10/14 11:15:19;;;;;;;7.05;3.58;;;20.30;38.70;;;;;;5037449;28;20201;-90
2023/10/14 11:17:47;;;;;;;8.68;3.80;;;20.40;37.20;;;;;;5036180;28;22698;-87
2023/10/14 11:20:15;;;;;;;8.38;3.88;;;20.40;35.70;;;;;;5046170;28;20232;-88
2023/10/14 11:22:43;;;;;;;6.93;3.92;;;20.40;36.10;;;;;;5047381;28;20301;-88
2023/10/14 11:25:13;;;;;;;9.40;3.78;;;20.60;35.30;;;;;;5038174;28;20212;-86
2023/10/14 11:27:42;;;;;;;6.28;3.45;;;20.60;35.80;;;;;;5047470;28;20230;-86
2023/10/14 11:30:12;;;;;;;5.60;3.17;;;20.60;36.40;;;;;;5046395;28;20267;-85
2023/10/14 11:32:46;;;;;;;6.57;3.45;;;20.70;34.80;;;;;;5048125;28;20205;-84
2023/10/14 11:35:16;;;;;;;4.57;3.00;;;20.60;34.80;;;;;;5049342;28;20199;-84
2023/10/14 11:37:43;;;;;;;7.07;3.28;;;20.70;34.40;;;;;;5034112;28;20217;-84
2023/10/14 11:40:14;;;;;;;8.75;3.55;;;20.70;35.40;;;;;;5048718;28;20209;-85
2023/10/14 11:42:43;;;;;;;5.93;3.42;;;20.80;34.50;;;;;;5045437;28;20203;-85
2023/10/14 11:45:10;;;;;;;7.13;3.17;;;21.00;33.20;;;;;;5044931;28;20198;-85
2023/10/14 11:47:39;;;;;;;4.60;3.10;;;21.10;33.90;;;;;;5047056;28;20194;-85
2023/10/14 11:50:12;;;;;;;7.25;2.97;;;21.10;34.60;;;;;;5048485;28;20346;-85
2023/10/14 11:52:42;;;;;;;4.75;2.53;;;21.10;33.00;;;;;;5045898;28;20213;-85
2023/10/14 11:55:14;;;;;;;4.32;3.20;;;21.10;33.00;;;;;;5048053;28;20214;-85
2023/10/14 11:57:43;;;;;;;7.85;2.80;;;20.90;32.80;;;;;;5049676;28;20216;-85
2023/10/14 12:00:12;;;;;;;6.13;3.00;;;20.70;33.60;;;;;;5049070;28;20194;-84
2023/10/14 12:02:39;;;;;;;7.03;2.92;;;20.90;33.00;;;;;;5049167;28;20194;-86
2023/10/14 12:05:08;;;;;;;5.97;2.90;;;21.10;33.00;;;;;;5047995;28;20229;-85
2023/10/14 12:07:35;;;;;;;6.82;3.85;;;21.20;33.10;;;;;;5048756;28;20205;-84
2023/10/14 12:10:04;;;;;;;7.63;2.80;;;21.40;33.20;;;;;;5052460;28;20240;-85
2023/10/14 12:12:31;;;;;;;7.05;3.00;;;21.40;33.20;;;;;;5047235;28;20204;-85
2023/10/14 12:15:05;;;;;;;5.65;3.30;;;21.40;33.20;;;;;;5053674;28;20553;-93
2023/10/14 12:17:32;;;;;;;3.92;2.88;;;21.60;30.80;;;;;;5030483;28;20199;-87
2023/10/14 12:19:59;;;;;;;6.18;2.80;;;21.60;29.50;;;;;;5052045;28;20202;-87
2023/10/14 12:22:27;;;;;;;5.75;2.90;;;21.50;30.90;;;;;;5028701;28;20206;-86
2023/10/14 12:24:54;;;;;;;7.15;3.00;;;21.50;31.80;;;;;;5029789;28;20203;-88
2023/10/14 12:27:25;;;;;;;4.72;2.75;;;21.50;31.40;;;;;;5052925;28;20198;-88
2023/10/14 12:35:18;;;;;;;5.82;3.00;;;21.60;31.90;;;;;;5038089;28;20241;-88
2023/10/14 12:37:44;;;;;;;7.30;3.30;;;21.60;32.30;;;;;;5048843;28;20546;-88
2023/10/14 12:40:12;;;;;;;5.55;2.70;;;21.50;32.30;;;;;;5032268;28;20202;-88
2023/10/14 12:42:46;;;;;;;6.03;2.90;;;21.50;32.10;;;;;;5045954;28;20286;-87
2023/10/14 12:45:21;;;;;;;5.70;3.00;;;21.40;33.20;;;;;;5047585;28;20186;-89
2023/10/14 12:53:18;;;;;;;4.68;3.00;;;21.20;32.10;;;;;;5040872;28;20205;-90
2023/10/14 12:55:45;;;;;;;4.00;2.80;;;20.90;32.80;;;;;;5052705;28;20281;-90
2023/10/14 12:58:15;;;;;;;6.32;2.85;;;20.70;32.60;;;;;;5019216;28;20301;-89
2023/10/14 13:03:29;;;;;;;5.25;3.03;;;20.40;32.40;;;;;;5051028;28;20221;-90
2023/10/14 13:05:56;;;;;;;4.88;3.05;;;20.40;34.90;;;;;;5037862;28;20203;-90
2023/10/14 13:08:23;;;;;;;4.95;2.80;;;20.40;32.40;;;;;;5015528;28;20198;-88
2023/10/14 13:10:52;;;;;;;4.20;3.10;;;20.60;33.10;;;;;;5052991;28;20735;-88
2023/10/14 13:13:20;;;;;;;6.75;3.05;;;20.70;33.50;;;;;;5035163;28;20200;-88
2023/10/14 13:15:47;;;;;;;7.55;2.90;;;20.90;32.80;;;;;;5032521;28;20277;-90
2023/10/14 13:18:14;;;;;;;7.43;3.03;;;20.90;32.80;;;;;;5052282;28;20215;-86
2023/10/14 13:20:43;;;;;;;4.32;2.80;;;21.10;31.50;;;;;;5049044;28;20202;-86